This is the latest recevied weather packets stored in our database for station/object DK9XR-14. If no packets are shown the sender has not sent any weather packets the latest 10 day(s).
| Time | Temp. | Humidity | Pressure | Rain* | Wind** | Luminosity | Snow |
|---|---|---|---|---|---|---|---|
| 1777747440 | 19.44° C | 40% | 1018.6 hPa | 0 mm | - | - | - |
| 1777747142 | 19.44° C | 41% | 1018.6 hPa | 0 mm | - | - | - |
| 1777746840 | 20° C | 39% | 1018.6 hPa | 0 mm | - | - | - |
| 1777746537 | 21.11° C | 36% | 1018.6 hPa | 0 mm | - | - | - |
| 1777746236 | 22.22° C | 34% | 1018.5 hPa | 0 mm | - | - | - |
| 1777745939 | 22.78° C | 29% | 1018.5 hPa | 0 mm | - | - | - |
| 1777745635 | 22.78° C | 28% | 1018.5 hPa | 0 mm | - | - | - |
| 1777745334 | 23.33° C | 28% | 1018.5 hPa | 0 mm | - | - | - |
| 1777745034 | 23.33° C | 28% | 1018.5 hPa | 0 mm | - | - | - |
| 1777744734 | 23.33° C | 27% | 1018.5 hPa | 0 mm | - | - | - |
| 1777744434 | 23.33° C | 27% | 1018.6 hPa | 0 mm | - | - | - |
| 1777744134 | 23.89° C | 27% | 1018.5 hPa | 0 mm | - | - | - |
| 1777743833 | 23.89° C | 27% | 1018.5 hPa | 0 mm | - | - | - |
| 1777743533 | 24.44° C | 26% | 1018.6 hPa | 0 mm | - | - | - |
| 1777743234 | 24.44° C | 26% | 1018.6 hPa | 0 mm | - | - | - |
| 1777742934 | 24.44° C | 26% | 1018.6 hPa | 0 mm | - | - | - |
| 1777742633 | 24.44° C | 27% | 1018.6 hPa | 0 mm | - | - | - |
| 1777742335 | 24.44° C | 27% | 1018.6 hPa | 0 mm | - | - | - |
| 1777742033 | 24.44° C | 27% | 1018.7 hPa | 0 mm | - | - | - |
| 1777741736 | 24.44° C | 27% | 1018.7 hPa | 0 mm | - | - | - |
| 1777741433 | 23.89° C | 26% | 1018.7 hPa | 0 mm | - | - | - |
| 1777741134 | 23.89° C | 26% | 1018.7 hPa | 0 mm | - | - | - |
| 1777740834 | 23.89° C | 26% | 1018.7 hPa | 0 mm | - | - | - |
| 1777740534 | 23.89° C | 26% | 1018.8 hPa | 0 mm | - | - | - |
| 1777740236 | 23.89° C | 26% | 1018.8 hPa | 0 mm | - | - | - |
* Rain latest hour (hover to see other rain measurements)
** Current wind speed in m/s (hover to see current wind gust speed)